createdAt,value
2019-04-07T00:34:27.625Z,0.00
2019-04-07T00:35:31.499Z,0.00
2019-04-07T00:37:27.372Z,0.00
2019-04-07T00:38:27.218Z,0.00
2019-04-07T00:39:27.207Z,0.00
2019-04-07T00:40:27.248Z,0.00
2019-04-07T00:41:27.532Z,0.00
2019-04-07T00:42:27.509Z,0.00
2019-04-07T00:43:27.506Z,0.00
2019-04-07T00:44:27.154Z,0.00
2019-04-07T00:45:27.143Z,0.00
2019-04-07T00:46:27.917Z,0.00
2019-04-07T00:47:27.123Z,0.00
2019-04-07T00:48:27.501Z,0.00
2019-04-07T00:49:27.098Z,0.00
2019-04-07T00:50:27.086Z,0.00
2019-04-07T00:51:27.643Z,0.00
2019-04-07T00:52:27.309Z,0.00
2019-04-07T00:53:27.056Z,0.00
2019-04-07T00:54:27.046Z,0.00
2019-04-07T00:55:27.037Z,5.62
2019-04-07T00:56:27.034Z,5.62
2019-04-07T00:57:27.517Z,5.62
2019-04-07T00:58:27.005Z,11.25
2019-04-07T00:59:27.061Z,11.25
2019-04-07T01:00:27.031Z,11.25
2019-04-07T01:01:27.141Z,16.87
2019-04-07T01:02:27.602Z,16.87
2019-04-07T01:03:27.580Z,16.87
2019-04-07T01:04:27.597Z,16.87
2019-04-07T01:05:35.706Z,16.87
2019-04-07T01:06:28.305Z,22.50
2019-04-07T01:07:26.911Z,22.50
2019-04-07T01:08:27.138Z,28.12
2019-04-07T01:09:27.681Z,28.12
2019-04-07T01:10:27.325Z,33.75
2019-04-07T01:11:26.863Z,39.37
2019-04-07T01:12:26.857Z,45.00
2019-04-07T01:13:27.323Z,50.62
2019-04-07T01:14:26.831Z,56.25
2019-04-07T01:15:27.235Z,61.87
2019-04-07T01:16:27.368Z,78.75
2019-04-07T01:17:26.933Z,95.62
2019-04-07T01:18:27.689Z,95.62
2019-04-07T01:19:26.786Z,90.00
2019-04-07T01:20:26.905Z,84.37
2019-04-07T01:21:26.809Z,90.00
2019-04-07T01:22:26.745Z,106.87
2019-04-07T01:23:26.957Z,106.87
2019-04-07T01:24:26.732Z,112.50
2019-04-07T01:25:26.827Z,123.75
2019-04-07T01:26:26.705Z,129.37
2019-04-07T01:27:26.999Z,135.00
2019-04-07T01:28:26.682Z,140.62
2019-04-07T01:29:26.721Z,146.25
2019-04-07T01:30:27.222Z,157.50
2019-04-07T01:31:26.653Z,174.37
2019-04-07T01:32:26.711Z,196.87
2019-04-07T01:33:26.680Z,213.75
2019-04-07T01:34:27.263Z,219.37
2019-04-07T01:35:26.791Z,230.62
2019-04-07T01:36:26.601Z,236.25
2019-04-07T01:37:26.587Z,270.00
2019-04-07T01:38:26.774Z,326.25
2019-04-07T01:39:27.298Z,354.37
2019-04-07T01:40:26.549Z,405.00
2019-04-07T01:41:26.541Z,500.62
2019-04-07T01:42:26.533Z,748.12
2019-04-07T01:43:26.631Z,1023.75
2019-04-07T01:44:26.687Z,1186.87
2019-04-07T01:45:26.912Z,1231.87
2019-04-07T01:46:26.494Z,1344.37
2019-04-07T01:47:26.704Z,1327.50
2019-04-07T01:48:26.867Z,1366.87
2019-04-07T01:49:27.156Z,1338.75
2019-04-07T01:50:26.493Z,1428.75
2019-04-07T01:51:26.591Z,1400.62
2019-04-07T01:52:26.425Z,1395.00
2019-04-07T01:53:26.419Z,1383.75
2019-04-07T01:54:26.408Z,1428.75
2019-04-07T01:55:26.851Z,1361.25
2019-04-07T01:56:26.438Z,1321.87
2019-04-07T01:57:26.371Z,1243.12
2019-04-07T01:58:26.467Z,1080.00
2019-04-07T01:59:26.552Z,922.50
2019-04-07T02:00:26.563Z,990.00
2019-04-07T02:01:26.339Z,1023.75
2019-04-07T02:02:26.421Z,1051.87
2019-04-07T02:03:26.548Z,888.75
2019-04-07T02:04:27.021Z,810.00
2019-04-07T02:05:26.333Z,781.87
2019-04-07T02:06:26.627Z,855.00
2019-04-07T02:07:26.269Z,877.50
2019-04-07T02:08:26.413Z,877.50
2019-04-07T02:09:26.472Z,888.75
2019-04-07T02:10:26.235Z,787.50
2019-04-07T02:11:26.436Z,770.62
2019-04-07T02:12:26.824Z,759.37
2019-04-07T02:13:26.441Z,748.12
2019-04-07T02:14:26.701Z,697.50
2019-04-07T02:15:26.767Z,675.00
2019-04-07T02:16:26.866Z,652.50
2019-04-07T02:17:26.372Z,652.50
2019-04-07T02:18:26.182Z,624.37
2019-04-07T02:19:26.322Z,607.50
2019-04-07T02:20:26.688Z,624.37
2019-04-07T02:21:26.120Z,635.62
2019-04-07T02:22:26.455Z,585.00
2019-04-07T02:23:26.565Z,545.62
2019-04-07T02:24:26.703Z,562.50
2019-04-07T02:25:26.263Z,607.50
2019-04-07T02:26:26.773Z,686.25
2019-04-07T02:27:26.064Z,748.12
2019-04-07T02:28:26.418Z,759.37
2019-04-07T02:29:26.042Z,714.37
2019-04-07T02:30:26.031Z,646.87
2019-04-07T02:31:26.024Z,601.87
2019-04-07T02:32:27.604Z,568.12
2019-04-07T02:33:26.001Z,556.87
2019-04-07T02:34:25.998Z,556.87
2019-04-07T02:35:25.992Z,556.87
2019-04-07T02:36:30.148Z,573.75
2019-04-07T02:37:26.624Z,596.25
2019-04-07T02:38:26.029Z,590.62
2019-04-07T02:39:25.938Z,601.87
2019-04-07T02:40:26.757Z,652.50
2019-04-07T02:41:26.113Z,691.87
2019-04-07T02:42:26.580Z,697.50
2019-04-07T02:43:25.945Z,686.25
2019-04-07T02:44:25.889Z,675.00
2019-04-07T02:45:25.880Z,669.37
2019-04-07T02:46:26.972Z,658.12
2019-04-07T02:47:25.851Z,652.50
2019-04-07T02:48:26.553Z,669.37
2019-04-07T02:49:26.304Z,680.62
2019-04-07T02:50:26.207Z,658.12
2019-04-07T02:51:26.246Z,630.00
2019-04-07T02:52:25.800Z,601.87
2019-04-07T02:53:25.791Z,635.62
2019-04-07T02:54:25.781Z,675.00
2019-04-07T02:55:26.774Z,697.50
2019-04-07T02:56:25.763Z,720.00
2019-04-07T02:57:26.843Z,753.75
2019-04-07T02:58:25.747Z,793.12
2019-04-07T02:59:25.755Z,787.50
2019-04-07T03:00:25.718Z,765.00
2019-04-07T03:01:26.473Z,753.75
2019-04-07T03:02:25.694Z,742.50
2019-04-07T03:03:25.710Z,776.25
2019-04-07T03:04:26.315Z,883.12
2019-04-07T03:05:26.685Z,1006.87
2019-04-07T03:06:37.475Z,1119.37
2019-04-07T03:07:50.557Z,1102.50
2019-04-07T03:08:50.658Z,1164.37
2019-04-07T03:09:51.617Z,1125.00
2019-04-07T03:10:51.205Z,967.50
2019-04-07T03:11:50.990Z,736.87
2019-04-07T03:12:51.212Z,579.37
2019-04-07T03:13:50.491Z,573.75
2019-04-07T03:14:50.700Z,540.00
2019-04-07T03:15:50.533Z,523.12
2019-04-07T03:16:51.472Z,528.75
2019-04-07T03:17:50.449Z,511.87
2019-04-07T03:18:50.761Z,489.37
2019-04-07T03:19:50.473Z,495.00
2019-04-07T03:20:50.426Z,495.00
2019-04-07T03:21:50.403Z,495.00
2019-04-07T03:22:50.767Z,506.25
2019-04-07T03:23:51.382Z,506.25
2019-04-07T03:24:50.479Z,478.12
2019-04-07T03:25:50.364Z,455.62
2019-04-07T03:26:51.424Z,433.12
2019-04-07T03:27:51.410Z,421.87
2019-04-07T03:28:50.348Z,410.62
2019-04-07T03:29:50.324Z,399.37
2019-04-07T03:30:51.904Z,393.75
2019-04-07T03:31:51.395Z,388.12
2019-04-07T03:32:52.947Z,382.50
2019-04-07T03:33:51.933Z,382.50
2019-04-07T03:34:51.989Z,382.50
2019-04-07T03:35:53.115Z,382.50
2019-04-07T03:37:17.277Z,376.87
2019-04-07T03:37:51.579Z,376.87
2019-04-07T03:38:50.385Z,382.50
2019-04-07T03:39:50.216Z,382.50
2019-04-07T03:40:50.308Z,382.50
2019-04-07T03:41:51.995Z,388.12
2019-04-07T03:42:51.006Z,393.75
2019-04-07T03:43:50.893Z,393.75
2019-04-07T03:44:50.916Z,399.37
2019-04-07T03:45:50.205Z,405.00
2019-04-07T03:46:50.141Z,405.00
2019-04-07T03:47:50.467Z,410.62
2019-04-07T03:48:50.807Z,410.62
2019-04-07T03:49:50.863Z,410.62
2019-04-07T03:50:50.831Z,416.25
2019-04-07T03:51:50.087Z,416.25
2019-04-07T03:52:51.047Z,416.25
2019-04-07T03:53:50.549Z,421.87
2019-04-07T03:54:50.859Z,427.50
2019-04-07T03:55:50.042Z,427.50
2019-04-07T03:56:50.077Z,433.12
2019-04-07T03:57:50.675Z,455.62
2019-04-07T03:58:50.737Z,466.87
2019-04-07T03:59:50.031Z,483.75
2019-04-07T04:00:50.304Z,500.62
2019-04-07T04:01:49.987Z,511.87
2019-04-07T04:02:50.573Z,500.62
2019-04-07T04:03:49.977Z,483.75
2019-04-07T04:04:50.140Z,472.50
2019-04-07T04:05:52.172Z,472.50
2019-04-07T04:06:49.927Z,478.12
2019-04-07T04:07:49.915Z,483.75
2019-04-07T04:08:50.958Z,489.37
2019-04-07T04:09:49.891Z,483.75
2019-04-07T04:10:50.183Z,500.62
2019-04-07T04:11:49.873Z,523.12
2019-04-07T04:12:50.256Z,511.87
2019-04-07T04:13:50.923Z,517.50
2019-04-07T04:14:50.812Z,517.50
2019-04-07T04:15:50.110Z,540.00
2019-04-07T04:16:50.746Z,556.87
2019-04-07T04:17:49.808Z,545.62
2019-04-07T04:18:50.361Z,540.00
2019-04-07T04:19:49.788Z,523.12
2019-04-07T04:20:49.875Z,534.37
2019-04-07T04:21:49.767Z,551.25
2019-04-07T04:22:50.640Z,562.50
2019-04-07T04:23:49.747Z,573.75
2019-04-07T04:24:49.974Z,585.00
2019-04-07T04:25:49.729Z,573.75
2019-04-07T04:26:50.120Z,579.37
2019-04-07T04:27:50.656Z,579.37
2019-04-07T04:28:49.697Z,579.37
2019-04-07T04:29:51.942Z,573.75
2019-04-07T04:30:50.680Z,573.75
2019-04-07T04:31:49.665Z,579.37
2019-04-07T04:32:49.721Z,579.37
2019-04-07T04:33:49.642Z,579.37
2019-04-07T04:34:49.733Z,573.75
2019-04-07T04:35:49.646Z,568.12
2019-04-07T04:36:50.268Z,562.50
2019-04-07T04:37:52.358Z,545.62
2019-04-07T04:38:50.265Z,534.37
2019-04-07T04:39:49.587Z,528.75
2019-04-07T04:40:50.462Z,528.75
2019-04-07T04:41:49.566Z,523.12
2019-04-07T04:42:50.358Z,506.25
2019-04-07T04:43:49.547Z,511.87
2019-04-07T04:44:49.846Z,506.25
2019-04-07T04:45:50.452Z,511.87
2019-04-07T04:46:49.513Z,500.62
2019-04-07T04:47:49.514Z,500.62
2019-04-07T04:48:49.593Z,495.00
2019-04-07T04:49:50.297Z,500.62
2019-04-07T04:50:50.410Z,500.62
2019-04-07T04:51:50.070Z,495.00
2019-04-07T04:52:49.448Z,483.75
2019-04-07T04:53:50.287Z,478.12
2019-04-07T04:54:49.692Z,478.12
2019-04-07T04:55:49.529Z,472.50
2019-04-07T04:56:50.103Z,472.50
2019-04-07T04:57:49.843Z,466.87
2019-04-07T04:58:50.399Z,466.87
2019-04-07T04:59:49.375Z,461.25
2019-04-07T05:00:50.547Z,461.25
2019-04-07T05:01:49.944Z,461.25
2019-04-07T05:02:49.591Z,466.87
2019-04-07T05:03:49.450Z,472.50
2019-04-07T05:04:49.707Z,478.12
2019-04-07T05:05:49.390Z,489.37
2019-04-07T05:06:49.301Z,489.37
2019-04-07T05:07:57.683Z,495.00
2019-04-07T05:09:14.590Z,500.62
2019-04-07T05:10:14.195Z,495.00
2019-04-07T05:11:14.668Z,495.00
2019-04-07T05:12:14.165Z,478.12
2019-04-07T05:13:14.155Z,466.87
2019-04-07T05:14:14.243Z,461.25
2019-04-07T05:15:14.737Z,450.00
2019-04-07T05:16:14.129Z,450.00
2019-04-07T05:17:14.128Z,461.25
2019-04-07T05:18:14.310Z,478.12
2019-04-07T05:19:14.292Z,495.00
2019-04-07T05:20:14.236Z,495.00
2019-04-07T05:21:14.073Z,495.00
2019-04-07T05:22:14.510Z,495.00
2019-04-07T05:23:14.131Z,500.62
2019-04-07T05:24:14.653Z,517.50
2019-04-07T05:25:14.056Z,528.75
2019-04-07T05:26:14.710Z,540.00
2019-04-07T05:27:14.017Z,545.62
2019-04-07T05:28:14.006Z,551.25
2019-04-07T05:29:14.625Z,556.87
2019-04-07T05:30:13.984Z,551.25
2019-04-07T05:31:14.498Z,551.25
2019-04-07T05:32:14.562Z,551.25
2019-04-07T05:33:14.139Z,551.25
2019-04-07T05:34:17.229Z,551.25
2019-04-07T05:35:14.281Z,545.62
2019-04-07T05:36:14.740Z,540.00
2019-04-07T05:37:14.089Z,540.00
2019-04-07T05:38:14.573Z,534.37
2019-04-07T05:39:13.894Z,534.37
2019-04-07T05:40:14.035Z,534.37
2019-04-07T05:41:14.143Z,534.37
2019-04-07T05:42:14.654Z,534.37
2019-04-07T05:43:13.856Z,534.37
2019-04-07T05:44:13.946Z,534.37
2019-04-07T05:45:13.834Z,534.37
2019-04-07T05:46:13.913Z,534.37
2019-04-07T05:47:15.254Z,528.75
2019-04-07T05:48:17.323Z,523.12
2019-04-07T05:49:16.226Z,523.12
2019-04-07T05:50:14.307Z,511.87
2019-04-07T05:51:14.347Z,506.25
2019-04-07T05:52:13.956Z,500.62
2019-04-07T05:53:14.791Z,495.00
2019-04-07T05:54:16.912Z,489.37
2019-04-07T05:55:14.219Z,483.75
2019-04-07T05:56:13.720Z,472.50
2019-04-07T05:57:13.709Z,466.87
2019-04-07T05:58:15.687Z,455.62
2019-04-07T05:59:14.648Z,450.00
2019-04-07T06:00:16.343Z,444.37
2019-04-07T06:01:14.052Z,438.75
2019-04-07T06:02:14.366Z,433.12
2019-04-07T06:03:13.647Z,433.12
2019-04-07T06:04:17.506Z,427.50
2019-04-07T06:05:16.285Z,421.87
2019-04-07T06:06:13.665Z,410.62
2019-04-07T06:07:13.824Z,405.00
2019-04-07T06:08:24.637Z,393.75
2019-04-07T07:26:25.358Z,444.37
2019-04-07T07:27:25.821Z,444.37
2019-04-07T07:28:25.095Z,433.12
2019-04-07T07:29:26.609Z,427.50
2019-04-07T07:30:28.318Z,427.50
2019-04-07T07:31:26.343Z,421.87
2019-04-07T07:32:25.057Z,416.25
2019-04-07T07:33:25.044Z,405.00
2019-04-07T07:34:25.037Z,405.00
2019-04-07T07:35:25.606Z,399.37
2019-04-07T07:36:25.016Z,388.12
2019-04-07T07:37:26.155Z,382.50
2019-04-07T07:38:29.713Z,382.50
2019-04-07T07:39:25.142Z,376.87
2019-04-07T07:40:25.421Z,371.25
2019-04-07T07:41:25.351Z,365.62
2019-04-07T07:42:25.650Z,360.00
2019-04-07T07:43:27.924Z,360.00
2019-04-07T07:44:24.928Z,354.37
2019-04-07T07:45:25.043Z,348.75
2019-04-07T07:46:24.909Z,348.75
2019-04-07T07:47:25.387Z,343.12
2019-04-07T07:48:27.955Z,337.50
2019-04-07T07:49:24.877Z,331.87
2019-04-07T07:50:25.409Z,326.25
2019-04-07T07:51:24.905Z,326.25
2019-04-07T07:52:25.493Z,320.62
2019-04-07T07:53:28.101Z,315.00
2019-04-07T07:54:27.729Z,309.37
2019-04-07T07:55:25.290Z,309.37
2019-04-07T07:56:25.559Z,303.75
2019-04-07T07:57:24.972Z,298.12
2019-04-07T07:58:27.938Z,292.50
2019-04-07T07:59:52.746Z,292.50
2019-04-07T08:00:52.684Z,292.50
2019-04-07T08:01:53.407Z,292.50
2019-04-07T08:02:53.569Z,292.50
2019-04-07T08:03:55.689Z,292.50
2019-04-07T08:04:56.541Z,298.12
2019-04-07T08:05:53.327Z,298.12
2019-04-07T08:06:53.361Z,298.12
2019-04-07T08:07:52.606Z,303.75
2019-04-07T08:08:52.652Z,303.75
2019-04-07T08:09:54.386Z,309.37
2019-04-07T08:10:56.162Z,309.37
2019-04-07T08:11:52.789Z,315.00
2019-04-07T08:12:53.165Z,320.62
2019-04-07T08:13:52.575Z,331.87
2019-04-07T08:14:55.561Z,337.50
2019-04-07T08:15:54.630Z,343.12
2019-04-07T08:16:53.112Z,348.75
2019-04-07T08:17:53.133Z,354.37
2019-04-07T08:18:52.500Z,360.00
2019-04-07T08:19:52.483Z,371.25
2019-04-07T08:20:53.295Z,371.25
2019-04-07T08:21:53.004Z,376.87
2019-04-07T08:22:52.451Z,388.12
2019-04-07T08:23:52.537Z,393.75
2019-04-07T08:24:52.426Z,393.75
2019-04-07T08:25:54.470Z,399.37
2019-04-07T08:26:56.282Z,399.37
2019-04-07T08:27:53.094Z,405.00
2019-04-07T08:28:52.597Z,410.62
2019-04-07T08:29:52.672Z,416.25
2019-04-07T08:30:52.368Z,416.25
2019-04-07T08:31:55.458Z,421.87
2019-04-07T08:32:52.341Z,416.25
2019-04-07T08:33:52.778Z,416.25
2019-04-07T08:34:52.325Z,410.62
2019-04-07T08:35:54.883Z,405.00
2019-04-07T08:36:53.063Z,399.37
2019-04-07T08:37:52.286Z,393.75
2019-04-07T08:38:55.079Z,382.50
2019-04-07T08:39:52.593Z,376.87
2019-04-07T08:40:54.282Z,365.62
2019-04-07T08:41:52.898Z,360.00
2019-04-07T08:42:52.236Z,360.00
2019-04-07T08:43:55.441Z,354.37
2019-04-07T08:44:52.296Z,354.37
2019-04-07T08:46:25.183Z,354.37
2019-04-07T08:47:25.809Z,354.37
2019-04-07T08:48:25.616Z,354.37
2019-04-07T08:49:25.622Z,354.37
2019-04-07T08:50:27.699Z,354.37
2019-04-07T08:51:29.342Z,360.00
2019-04-07T08:52:25.114Z,360.00
2019-04-07T08:53:25.151Z,360.00
2019-04-07T08:54:25.091Z,360.00
2019-04-07T08:55:25.889Z,365.62
2019-04-07T08:56:26.645Z,371.25
2019-04-07T08:57:27.208Z,371.25
2019-04-07T08:58:28.577Z,376.87
2019-04-07T08:59:25.039Z,371.25
2019-04-07T09:00:25.023Z,371.25
2019-04-07T09:01:28.446Z,365.62
2019-04-07T09:02:26.890Z,365.62
2019-04-07T09:03:24.997Z,360.00
2019-04-07T09:04:25.275Z,354.37
2019-04-07T09:05:29.023Z,354.37
2019-04-07T09:06:27.297Z,354.37
2019-04-07T09:07:24.959Z,360.00
2019-04-07T09:08:24.945Z,360.00
